Wedza, Zimbabwe

3:41 PM CAT on October 01, 2016 (GMT +0200)
Harare International | | Change Station

Elev 4856 ft 17.92 °S, 31.13 °E | Updated 41 minutes ago

Clear
Clear
86 °F
Feels Like 86 °F
N
6
Wind Variable Wind from NE

Today
High -- | Low -- °F
--% Chance of Precip.
Yesterday
High -- | Low -- °F
Precip. -- in
Pressure 30.01 in
Visibility -9999.0 miles
Clouds
Dew Point 41 °F
Humidity 20%
Rainfall 0.00 in
Snow Depth Not available.
5:35 AM 5:51 PM
New Moon, 0% visible
METAR FVHA 011300Z 05005KT 010V090 CAVOK 30/05 Q1016 NOSIG
Pressure 30.01 in
Visibility -9999.0 miles
Clouds
Dew Point 41 °F
Humidity 20%
Rainfall 0.00 in
Snow Depth Not available.
5:35 AM 5:51 PM
New Moon, 0% visible
METAR FVHA 011300Z 05005KT 010V090 CAVOK 30/05 Q1016 NOSIG

10-Day Weather Forecast

No radar image for this location.
×

Almanac

Astronomy

Oct. 01, 2016 Rise Set
Actual Time
Civil Twilight
Nautical Twilight
Astronomical Twilight
Moon
Length of Visible Light
Length of Day
Tomorrow will be .
, % of the Moon is Illuminated

Today's Extremes

Country Highs Country Lows

Community

WunderPhotos

Upload Photos

1,942,931 photos uploaded!

WunderBlog® & News

Nearby

Air Quality

  Air Quality AQ Index Pollutant
Not available.

Snow Depth

Station Depth Elevation

Earthquake Activity

City Distance Mag. Time & Date
Minimum magnitude displayed is 2.5.

Coastal Water Temperatures

Place Temperature

Stations

Nearby Weather Stations

Station Location Temp. Windchill Dew Point Humidity Wind Precip. Elev Updated Type